Latest Weather Observations for Daly Waters

IDD60801

Issued at 7:31 pm CST Sunday 25 January 2015 (issued every 30 minutes, with the page automatically refreshed every 10 minutes)

About weather observations | Map of weather stations | Latest weather observations for NT | Other Formats
Station Details ID: 014626 Name: DALY WATERS AIRSTRIP Lat: -16.26 Lon: 133.38 Height: 209.84 m
Data from the previous 72 hours. | See also: Recent months at Daly Waters
Date/Time
CST
Temp
°C
App
Temp
°C
Dew
Point
Rel
Hum
%
Delta-T
°C
Wind Press
QNH
hPa
Press
MSL
hPa
Rain
since 9 am
mm
Dir
 
Spd
km/h
Gust
km/h
Spd
kts
Gust
kts
25/07:30pm 27.6 30.8 21.6 70 4.0 N 7 11 4 6 1007.8 1006.2 0.0
25/07:00pm 28.0 31.3 21.5 67 4.4 NE 6 9 3 5 1006.9 1005.3 0.0
25/06:30pm 28.4 33.0 21.7 67 4.5 CALM 0 4 0 2 1006.3 1004.7 0.0
25/06:00pm 28.7 32.6 21.2 64 5.0 E 2 6 1 3 1006.0 1004.4 0.0
25/05:30pm 29.4 32.1 20.3 58 6.1 NE 6 9 3 5 1005.3 1003.7 0.0
25/05:00pm 30.1 32.9 20.4 56 6.5 S 6 15 3 8 1005.4 1003.8 0.0
25/04:30pm 28.8 30.8 20.0 59 5.8 SSE 9 17 5 9 1004.6 1002.9 0.0
25/04:00pm 28.7 28.4 19.1 56 6.3 S 19 30 10 16 1006.0 1004.4 0.0
25/03:30pm 32.1 33.3 20.7 51 7.7 S 15 30 8 16 1006.8 1005.2 0.0
25/03:00pm 33.3 36.4 21.5 50 8.1 SSW 7 13 4 7 1006.9 1005.3 0.0
25/02:30pm 34.0 37.5 21.8 49 8.4 SSW 6 9 3 5 1007.3 1005.7 0.0
25/02:00pm 34.2 37.9 22.6 50 8.0 WSW 7 17 4 9 1007.9 1006.3 0.0
25/01:30pm 34.6 37.8 22.3 48 8.5 WNW 9 17 5 9 1008.0 1006.4 0.0
25/01:00pm 34.4 37.5 22.1 48 8.5 NW 9 19 5 10 1008.4 1006.8 0.0
25/12:30pm 33.7 37.2 22.1 50 8.0 WSW 7 17 4 9 1008.8 1007.1 0.0
25/12:00pm 32.7 36.6 22.5 55 7.0 SSW 6 11 3 6 1008.9 1007.2 0.0
25/11:30am 32.3 35.3 22.7 57 6.6 NW 11 20 6 11 1009.4 1007.8 0.0
25/11:00am 31.9 35.2 22.6 58 6.4 NW 9 15 5 8 1009.6 1008.0 0.0
25/10:30am 30.6 33.6 22.7 62 5.4 W 11 17 6 9 1009.9 1008.3 0.0
25/10:00am 28.9 31.8 22.4 68 4.4 NW 11 17 6 9 1010.0 1008.4 0.0
25/09:30am 28.4 31.1 22.2 69 4.2 WNW 11 15 6 8 1010.2 1008.6 0.0
25/09:00am 27.6 30.4 22.3 73 3.6 W 11 17 6 9 1010.1 1008.5 0.0
25/08:30am 26.8 29.2 21.6 73 3.5 WNW 11 19 6 10 1010.0 1008.4 0.0
25/08:00am 26.9 28.9 21.6 72 3.6 NW 13 22 7 12 1009.8 1008.2 0.0
25/07:30am 25.7 29.6 21.8 79 2.6 NE 4 7 2 4 1009.6 1008.0 0.0
25/07:00am 24.8 28.6 21.7 83 2.1 ENE 4 6 2 3 1009.0 1007.3 0.0
25/06:30am 24.6 28.0 21.7 84 1.9 NE 6 7 3 4 1008.5 1006.9 0.0
25/06:00am 24.6 28.0 21.7 84 1.9 NE 6 7 3 4 1008.0 1006.4 0.0
25/05:30am 24.9 28.3 21.6 82 2.2 NE 6 7 3 4 1007.9 1006.3 0.0
25/05:00am 25.2 28.6 21.7 81 2.3 NNE 6 9 3 5 1007.8 1006.2 0.0
25/04:30am 25.3 28.7 21.6 80 2.5 NNE 6 9 3 5 1007.6 1006.0 0.0
25/04:00am 25.6 29.0 21.7 79 2.6 NNE 6 7 3 4 1007.4 1005.8 0.0
25/03:30am 25.9 29.4 21.8 78 2.8 NNE 6 11 3 6 1007.3 1005.7 0.0
25/03:00am 26.2 29.5 21.8 77 3.0 NNE 7 13 4 7 1007.2 1005.6 0.0
25/02:30am 26.5 29.5 21.9 76 3.1 NNE 9 15 5 8 1007.1 1005.5 0.0
25/02:00am 26.7 29.8 22.1 76 3.1 N 9 17 5 9 1007.3 1005.7 0.0
25/01:30am 26.7 29.8 22.1 76 3.1 NNE 9 13 5 7 1007.4 1005.8 0.0
25/01:00am 26.6 30.2 22.0 76 3.1 NNE 6 11 3 6 1007.5 1005.9 0.0
25/12:30am 26.7 30.3 22.1 76 3.1 NNE 6 9 3 5 1007.7 1006.1 0.0
25/12:00am 25.8 30.0 22.5 82 2.2 ENE 4 6 2 3 1007.6 1006.0 0.0
 
Date/Time
CST
Temp
°C
App
Temp
°C
Dew
Point
Rel
Hum
%
Delta-T
°C
Wind Press
QNH
hPa
Press
MSL
hPa
Rain
since 9 am
mm
Dir
 
Spd
km/h
Gust
km/h
Spd
kts
Gust
kts
24/11:30pm 25.2 30.2 22.5 85 1.8 CALM 0 2 0 1 1007.8 1006.2 0.0
24/11:00pm 25.4 30.2 22.1 82 2.2 CALM 0 0 0 0 1008.0 1006.4 0.0
24/10:30pm 25.9 31.2 23.0 84 2.0 CALM 0 0 0 0 1007.8 1006.2 0.0
24/10:00pm 26.4 32.0 23.5 84 2.0 CALM 0 0 0 0 1007.6 1006.0 0.0
24/09:30pm 26.8 32.5 23.7 83 2.1 CALM 0 0 0 0 1007.3 1005.7 0.0
24/09:00pm 27.1 32.5 23.3 80 2.6 CALM 0 0 0 0 1006.9 1005.3 0.0
24/08:30pm 27.5 32.3 22.9 76 3.2 ESE 2 4 1 2 1006.6 1005.0 0.0
24/08:00pm 28.4 33.5 23.3 74 3.5 ESE 2 4 1 2 1006.1 1004.5 0.0
24/07:30pm 29.7 34.5 22.2 64 5.1 CALM 0 0 0 0 1005.7 1004.1 0.0
24/07:00pm 33.6 40.1 25.0 60 6.1 CALM 0 0 0 0 1005.4 1003.8 0.0
24/06:30pm 34.7 38.0 19.1 39 10.4 CALM 0 4 0 2 1004.9 1003.3 0.0
24/06:00pm 35.5 36.7 16.8 33 12.1 ESE 6 9 3 5 1004.5 1002.8 0.0
24/05:30pm 36.0 36.6 15.7 30 12.9 SE 7 13 4 7 1004.4 1002.7 0.0
24/05:00pm 35.9 37.0 17.1 32 12.2 SE 7 13 4 7 1004.3 1002.6 0.0
24/04:30pm 34.0 35.5 17.7 38 10.6 SE 6 7 3 4 1004.5 1002.8 0.0
24/04:00pm 35.8 37.2 16.5 31 12.4 ESE 4 6 2 3 1004.6 1002.9 0.0
24/03:30pm 35.8 36.7 16.0 30 12.7 SE 6 9 3 5 1004.9 1003.3 0.0
24/03:00pm 36.6 37.5 16.2 29 13.1 SSE 6 11 3 6 1005.0 1003.4 0.0
24/02:30pm 36.7 38.3 17.8 32 12.4 SSW 6 7 3 4 1005.2 1003.6 0.0
24/02:00pm 36.3 37.4 17.0 32 12.5 S 7 13 4 7 1005.5 1003.9 0.0
24/01:30pm 36.3 37.7 16.5 31 12.8 SSE 4 11 2 6 1005.9 1004.3 0.0
24/01:00pm 35.7 35.8 16.4 31 12.4 W 11 20 6 11 1006.3 1004.7 0.0
24/12:30pm 35.4 35.8 15.2 30 12.8 SW 7 19 4 10 1006.8 1005.2 0.0
24/12:00pm 35.0 36.0 16.8 34 11.7 SSW 7 19 4 10 1006.9 1005.3 0.0
24/11:30am 34.8 35.9 17.1 35 11.5 SSW 7 13 4 7 1007.2 1005.6 0.0
24/11:00am 34.0 35.4 17.7 38 10.6 SW 7 13 4 7 1007.3 1005.7 0.0
24/10:30am 33.6 35.3 18.5 40 9.9 W 7 11 4 6 1007.6 1006.0 0.0
24/10:00am 32.6 34.4 18.4 43 9.3 WNW 6 11 3 6 1007.5 1005.9 0.0
24/09:30am 32.0 34.9 20.6 51 7.7 ENE 6 9 3 5 1007.4 1005.8 0.0
24/09:00am 30.6 33.4 20.8 56 6.6 S 7 9 4 5 1007.3 1005.7 0.0
24/08:30am 28.9 32.0 21.4 64 5.1 NW 7 11 4 6 1007.3 1005.7 0.0
24/08:00am 27.2 30.1 21.7 72 3.7 W 9 15 5 8 1007.1 1005.5 0.0
24/07:30am 25.4 28.3 21.7 80 2.5 WNW 9 13 5 7 1007.0 1005.4 0.0
24/07:00am 23.6 26.2 20.1 81 2.3 N 6 7 3 4 1006.7 1005.1 0.0
24/06:30am 23.0 25.2 19.6 81 2.2 NNE 7 9 4 5 1006.2 1004.6 0.0
24/06:00am 22.8 25.4 20.5 87 1.5 NNE 7 9 4 5 1005.8 1004.2 0.0
24/05:30am 22.3 25.6 20.0 87 1.5 E 2 4 1 2 1005.3 1003.7 0.0
24/05:00am 22.8 25.8 20.1 85 1.8 ENE 4 6 2 3 1005.0 1003.4 0.0
24/04:30am 22.9 25.6 20.6 87 1.5 ENE 7 24 4 13 1004.9 1003.3 0.0
24/04:00am 22.4 25.6 20.5 89 1.2 SSE 4 6 2 3 1004.5 1002.8 0.0
24/03:30am 22.6 26.3 20.7 89 1.2 SSE 2 4 1 2 1004.5 1002.8 0.0
24/03:00am 22.8 26.7 21.1 90 1.1 SE 2 6 1 3 1004.5 1002.8 0.0
24/02:30am 22.9 27.0 20.8 88 1.4 CALM 0 0 0 0 1004.4 1002.7 0.0
24/02:00am 22.9 26.9 20.6 87 1.5 CALM 0 0 0 0 1004.9 1003.3 0.0
24/01:30am 23.2 27.5 21.1 88 1.4 CALM 0 0 0 0 1005.1 1003.5 0.0
24/01:00am 23.4 27.7 21.1 87 1.5 CALM 0 0 0 0 1005.4 1003.8 0.0
24/12:30am 23.7 28.1 21.4 87 1.5 CALM 0 0 0 0 1005.6 1004.0 0.0
24/12:00am 23.8 27.2 21.7 88 1.4 SSE 6 6 3 3 1005.9 1004.3 0.0
 
Date/Time
CST
Temp
°C
App
Temp
°C
Dew
Point
Rel
Hum
%
Delta-T
°C
Wind Press
QNH
hPa
Press
MSL
hPa
Rain
since 9 am
mm
Dir
 
Spd
km/h
Gust
km/h
Spd
kts
Gust
kts
23/11:30pm 23.9 28.4 21.6 87 1.5 CALM 0 0 0 0 1006.1 1004.5 0.0
23/11:00pm 24.0 28.5 21.5 86 1.7 CALM 0 0 0 0 1006.5 1004.9 0.0
23/10:30pm 24.3 28.9 21.8 86 1.7 CALM 0 0 0 0 1006.5 1004.9 0.0
23/10:00pm 24.5 28.4 21.8 85 1.8 SSE 4 4 2 2 1006.4 1004.8 0.0
23/09:30pm 24.9 29.7 22.2 85 1.8 CALM 0 2 0 1 1006.4 1004.8 0.0
23/09:00pm 25.2 29.9 21.9 82 2.2 CALM 0 2 0 1 1006.2 1004.6 0.0
23/08:30pm 25.8 30.4 21.7 78 2.8 CALM 0 0 0 0 1005.7 1004.1 0.0
23/08:00pm 26.8 32.0 22.8 79 2.7 CALM 0 0 0 0 1005.4 1003.8 0.0
23/07:30pm 28.3 32.7 21.3 65 4.7 CALM 0 0 0 0 1005.0 1003.4 0.0
23/07:00pm 31.1 35.4 21.9 58 6.3 SE 2 4 1 2 1004.4 1002.7 0.0
23/06:30pm 33.8 35.6 17.5 38 10.6 SE 4 6 2 3 1004.0 1002.3 0.0
23/06:00pm 34.5 35.3 15.9 33 11.8 SE 6 13 3 7 1003.5 1001.9 0.0
23/05:30pm 34.9 35.3 16.2 32 12.0 SE 9 17 5 9 1003.0 1001.4 0.0
23/05:00pm 35.3 34.9 14.0 28 13.2 SE 9 15 5 8 1002.8 1001.2 0.0
23/04:30pm 35.5 35.1 14.2 28 13.3 SE 9 17 5 9 1002.9 1001.3 0.0
23/04:00pm 35.7 35.0 13.2 26 13.8 SE 9 13 5 7 1003.1 1001.5 0.0
23/03:30pm 35.7 35.4 14.4 28 13.3 SSE 9 15 5 8 1003.4 1001.8 0.0
23/03:00pm 36.0 36.6 15.2 29 13.2 ESE 6 15 3 8 1003.3 1001.7 0.0
23/02:30pm 35.7 35.0 14.4 28 13.3 SE 11 22 6 12 1003.7 1002.0 0.0
23/02:00pm 35.5 35.9 16.3 32 12.3 SE 9 17 5 9 1003.8 1002.1 0.0
23/01:30pm 35.2 35.9 17.0 34 11.8 SSE 9 15 5 8 1004.1 1002.4 0.0
23/01:00pm 34.7 35.0 16.1 33 11.8 SSE 9 19 5 10 1004.6 1002.9 0.0
23/12:30pm 34.3 35.5 18.3 38 10.5 SSW 9 17 5 9 1005.1 1003.5 0.0
23/12:00pm 34.0 34.8 16.4 35 11.3 S 7 13 4 7 1005.6 1004.0 0.0
23/11:30am 33.5 34.3 16.4 36 10.9 S 7 11 4 6 1006.0 1004.4 0.0
23/11:00am 32.6 33.6 16.4 37 10.3 SSE 6 13 3 7 1006.4 1004.8 0.0
23/10:30am 31.2 34.0 18.9 48 8.1 E 2 9 1 5 1006.9 1005.3 0.0
23/10:00am 29.5 32.9 20.9 60 5.8 E 4 7 2 4 1007.1 1005.5 0.0
23/09:30am 27.5 31.1 21.3 69 4.2 E 4 6 2 3 1007.0 1005.4 0.0
23/09:00am 25.9 30.5 22.4 81 2.4 E 2 4 1 2 1006.9 1005.3 0.0
23/08:30am 24.9 30.0 22.6 87 1.6 CALM 0 4 0 2 1006.1 1004.5 0.0
23/08:00am 23.8 28.5 21.9 89 1.3 CALM 0 0 0 0 1005.1 1003.5 0.0
23/07:30am 23.1 27.5 21.4 90 1.1 CALM 0 0 0 0 1004.8 1003.1 0.0
23/07:00am 22.4 26.5 20.7 90 1.1 CALM 0 0 0 0 1004.7 1003.0 0.0
23/06:30am 22.1 25.5 20.2 89 1.2 SE 2 4 1 2 1004.4 1002.7 0.0
23/06:00am 22.1 24.9 20.4 90 1.1 SE 6 6 3 3 1004.3 1002.6 0.0
23/05:30am 22.2 26.1 20.3 89 1.2 CALM 0 0 0 0 1004.4 1002.7 0.0
23/05:00am 22.3 26.2 20.4 89 1.2 CALM 0 0 0 0 1004.8 1003.1 0.0
23/04:30am 22.5 26.5 20.6 89 1.2 CALM 0 0 0 0 1005.0 1003.4 0.0
23/04:00am 22.6 26.7 20.7 89 1.2 CALM 0 0 0 0 1005.3 1003.7 0.0
23/03:30am 22.6 26.6 20.5 88 1.4 CALM 0 0 0 0 1005.2 1003.6 0.0
23/03:00am 22.6 26.6 20.5 88 1.4 CALM 0 0 0 0 1005.1 1003.5 0.0
23/02:30am 23.0 26.7 20.7 87 1.5 E 2 6 1 3 1005.8 1004.2 0.0
23/02:00am 23.0 27.1 20.7 87 1.5 CALM 0 0 0 0 1005.7 1004.1 0.0
23/01:30am 23.1 27.1 20.6 86 1.6 CALM 0 2 0 1 1005.2 1003.6 0.0
23/01:00am 23.2 26.5 20.7 86 1.6 SE 4 6 2 3 1005.4 1003.8 0.0
23/12:30am 23.3 27.4 20.8 86 1.6 CALM 0 4 0 2 1006.0 1004.4 0.0
23/12:00am 23.6 27.5 20.3 82 2.2 CALM 0 0 0 0 1006.3 1004.7 0.0
 
Date/Time
CST
Temp
°C
App
Temp
°C
Dew
Point
Rel
Hum
%
Delta-T
°C
Wind Press
QNH
hPa
Press
MSL
hPa
Rain
since 9 am
mm
Dir
 
Spd
km/h
Gust
km/h
Spd
kts
Gust
kts
22/11:30pm 24.5 28.2 21.4 83 2.1 SE 4 6 2 3 1006.3 1004.7 0.0
22/11:00pm 25.3 27.6 19.4 70 3.8 SSE 6 7 3 4 1006.1 1004.5 0.0
22/10:30pm 26.2 28.2 19.1 65 4.6 SE 7 11 4 6 1006.3 1004.7 0.0
22/10:00pm 25.1 27.6 19.9 73 3.4 SE 6 7 3 4 1005.7 1004.1 0.0
22/09:30pm 24.6 27.9 20.7 79 2.6 SE 4 6 2 3 1005.2 1003.6 0.0
22/09:00pm 25.0 28.1 21.1 79 2.6 SE 6 6 3 3 1004.7 1003.0 0.0
22/08:30pm 26.0 30.2 22.5 81 2.4 SE 4 6 2 3 1004.5 1002.8 0.0
22/08:00pm 26.6 30.5 21.8 75 3.2 SE 4 6 2 3 1004.2 1002.5 0.0

Other Formats:

Comma delimited format used in spreadsheet applications
http://www.bom.gov.au/fwo/IDD60801/IDD60801.94234.axf

JavaScript Object Notation format (JSON) in row-major order
http://www.bom.gov.au/fwo/IDD60801/IDD60801.94234.json